Time;durP1;ratioP1;P1;durP2;ratioP2;P2;SDS_P1;SDS_P2;PMS_P1;PMS_P2;Temp;Humidity;BMP_temperature;BMP_pressure;BME280_temperature;BME280_humidity;BME280_pressure;Samples;Min_cycle;Max_cycle;Signal;HPM_P1;HPM_P2
2022/02/10 00:21:08;;;;;;;;;60.50;48.00;;;;;10.73;56.76;101761.25;5041209;28;46026;-43
2022/02/10 00:36:40;;;;;;;;;53.50;44.25;;;;;10.61;57.02;101762.09;5041032;28;45632;-44
2022/02/10 00:41:44;;;;;;;;;54.25;44.75;;;;;10.57;57.09;101747.22;5040988;28;46002;-44
2022/02/10 00:44:09;;;;;;;;;52.75;41.50;;;;;10.56;57.20;101764.75;5040998;28;45264;-44
2022/02/10 00:46:34;;;;;;;;;58.50;47.25;;;;;10.55;57.20;101760.34;5039802;28;45283;-43
2022/02/10 00:49:00;;;;;;;;;57.50;45.00;;;;;10.56;57.18;101763.84;5041120;28;45279;-52
2022/02/10 00:51:25;;;;;;;;;54.25;44.50;;;;;10.53;57.18;101763.84;5039256;28;45426;-45
2022/02/10 00:53:51;;;;;;;;;46.00;36.75;;;;;10.53;57.51;101762.09;5040954;28;45382;-43
2022/02/10 00:56:17;;;;;;;;;51.50;42.00;;;;;10.50;57.50;101762.09;5040973;28;45503;-42
2022/02/10 00:58:45;;;;;;;;;50.25;40.25;;;;;10.47;57.58;101759.44;5039500;28;45442;-42
2022/02/10 01:31:16;;;;;;;;;43.50;37.00;;;;;10.42;58.23;101790.09;5040407;28;45331;-44
2022/02/10 01:33:43;;;;;;;;;45.25;35.75;;;;;10.40;58.18;101790.09;5039971;28;45517;-44
2022/02/10 01:36:09;;;;;;;;;45.50;37.50;;;;;10.38;58.39;101790.97;5038888;28;45901;-43
2022/02/10 01:38:34;;;;;;;;;45.00;38.00;;;;;10.37;58.34;101802.34;5040154;28;45568;-44
2022/02/10 02:03:20;;;;;;;;;43.25;35.25;;;;;10.05;59.35;101777.66;5037830;28;45289;-46
2022/02/10 02:05:50;;;;;;;;;46.25;37.00;;;;;10.01;59.40;101791.66;5027369;28;46335;-46
2022/02/10 02:08:21;;;;;;;;;41.00;36.25;;;;;9.99;59.48;101780.25;5040094;28;45216;-45
2022/02/10 02:10:46;;;;;;;;;43.25;38.00;;;;;9.97;59.42;101783.75;5039636;28;45425;-48
2022/02/10 02:13:12;;;;;;;;;45.00;38.00;;;;;9.94;59.35;101784.59;5040106;28;45605;-47
2022/02/10 02:15:37;;;;;;;;;46.50;36.50;;;;;9.89;59.33;101778.47;5039602;28;45195;-45
2022/02/10 02:18:03;;;;;;;;;42.25;37.25;;;;;9.90;59.55;101782.84;5042614;28;45293;-47
2022/02/10 02:20:28;;;;;;;;;48.25;38.25;;;;;9.86;59.46;101788.94;5043265;28;45585;-47
2022/02/10 02:22:53;;;;;;;;;48.50;38.75;;;;;9.83;59.51;101789.78;5041849;28;45236;-49
2022/02/10 02:25:20;;;;;;;;;46.50;38.00;;;;;9.84;59.67;101788.06;5043180;28;45260;-44
2022/02/10 02:27:49;;;;;;;;;43.75;38.00;;;;;9.82;59.89;101795.03;5043271;28;45227;-45
2022/02/10 02:30:25;;;;;;;;;49.25;37.75;;;;;9.77;59.67;101789.75;5043201;28;45387;-47
2022/02/10 02:33:21;;;;;;;;;44.50;37.50;;;;;9.74;59.91;101789.75;5042109;28;45529;-46
2022/02/10 02:38:44;;;;;;;;;36.50;32.25;;;;;9.71;59.63;101792.34;5043047;28;45326;-43
2022/02/10 03:08:21;;;;;;;;;33.50;32.50;;;;;9.54;60.31;101782.63;5042566;28;45411;-44
2022/02/10 03:13:17;;;;;;;;;29.50;27.00;;;;;9.49;60.15;101780.84;5042611;28;45310;-44
2022/02/10 03:21:34;;;;;;;;;34.25;29.25;;;;;9.52;60.25;101791.34;5041934;28;45272;-44
2022/02/10 04:15:26;;;;;;;;;40.50;30.75;;;;;9.16;60.84;101812.06;5041519;28;45276;-43
2022/02/10 04:26:12;;;;;;;;;35.00;32.75;;;;;9.16;60.52;101811.19;5041087;28;45346;-43
2022/02/10 05:06:21;;;;;;;;;42.75;36.75;;;;;8.81;60.54;101841.44;5040567;28;45410;-43
2022/02/10 05:23:19;;;;;;;;;40.75;32.00;;;;;8.76;60.57;101836.13;5040254;28;45375;-43
2022/02/10 05:35:35;;;;;;;;;36.25;33.50;;;;;8.82;60.80;101839.69;5040082;28;45346;-48
2022/02/10 05:38:08;;;;;;;;;46.00;34.50;;;;;8.83;60.85;101841.44;5040224;28;46441;-44
2022/02/10 06:02:04;;;;;;;;;45.50;36.75;;;;;8.87;60.94;101864.22;5039692;28;45281;-46
2022/02/10 06:48:49;;;;;;;;;35.25;32.25;;;;;8.94;61.17;101892.25;5059360;28;45379;-45
2022/02/10 07:09:11;;;;;;;;;39.50;33.25;;;;;8.97;60.69;101901.88;5041914;28;45324;-47
2022/02/10 07:47:29;;;;;;;;;44.25;36.75;;;;;9.05;60.63;101915.97;5033179;28;45289;-50
2022/02/10 07:50:15;;;;;;;;;52.25;38.50;;;;;9.09;60.51;101923.00;5023111;28;45367;-45
2022/02/10 07:58:05;;;;;;;;;43.75;37.00;;;;;9.17;60.57;101915.22;5036539;28;45405;-48
2022/02/10 08:29:46;;;;;;;;;38.25;30.00;;;;;9.41;60.89;101956.59;5038347;28;45361;-48
2022/02/10 09:13:22;;;;;;;;;42.25;35.75;;;;;9.51;60.89;101992.53;5028124;28;45499;-48
2022/02/10 10:01:33;;;;;;;;;38.00;33.75;;;;;9.66;60.80;102004.94;5040412;28;45379;-45
2022/02/10 10:04:13;;;;;;;;;33.00;31.25;;;;;9.65;60.81;102004.91;5039369;28;45534;-47
2022/02/10 10:10:01;;;;;;;;;30.50;30.25;;;;;9.66;60.90;102004.03;5040614;28;45466;-46
2022/02/10 10:15:04;;;;;;;;;42.50;35.75;;;;;9.67;60.90;102001.44;5042534;28;45415;-48
2022/02/10 10:23:00;;;;;;;;;44.25;34.25;;;;;9.74;60.76;102008.50;5039388;28;45489;-47
2022/02/10 10:50:49;;;;;;;;;39.25;32.25;;;;;9.96;60.84;102013.06;5046326;28;45760;-47
2022/02/10 10:56:25;;;;;;;;;33.50;27.50;;;;;10.04;60.81;102032.41;5042711;28;45482;-47
2022/02/10 11:25:39;;;;;;;;;34.25;29.25;;;;;10.39;60.52;101995.94;5045661;28;45640;-49
2022/02/10 11:38:13;;;;;;;;;30.25;28.75;;;;;10.65;60.40;101987.31;5041996;28;45389;-50
2022/02/10 11:40:56;;;;;;;;;32.50;27.00;;;;;10.72;60.32;101983.84;5041506;28;45248;-48
2022/02/10 13:28:56;;;;;;;;;15.00;12.50;;;;;11.89;59.38;101868.28;5031020;28;45292;-46
2022/02/10 14:15:58;;;;;;;;;17.00;15.50;;;;;11.28;60.00;101847.25;5046802;28;45367;-50
2022/02/10 14:18:50;;;;;;;;;14.75;14.25;;;;;11.27;59.93;101840.22;5028799;28;45361;-50
2022/02/10 14:21:00;;;;;;;;;18.75;17.50;;;;;11.31;60.05;101846.38;5035605;28;45318;-50
2022/02/10 14:26:04;;;;;;;;;15.25;14.50;;;;;11.33;60.06;101845.47;5051589;28;45382;-49
2022/02/10 14:28:31;;;;;;;;;21.75;20.25;;;;;11.26;60.04;101824.41;5053071;28;45223;-48
2022/02/10 14:31:02;;;;;;;;;16.50;14.25;;;;;11.36;59.99;101836.72;5049511;28;45472;-47
2022/02/10 14:33:31;;;;;;;;;19.25;17.50;;;;;11.38;60.03;101833.19;5045231;28;46062;-49
2022/02/10 15:47:01;;;;;;;;;17.00;14.00;;;;;12.17;58.92;101801.44;5055385;28;45314;-45
2022/02/10 15:52:14;;;;;;;;;12.00;12.00;;;;;12.14;59.00;101805.88;5029518;28;45339;-46
2022/02/10 16:14:35;;;;;;;;;13.00;13.00;;;;;12.08;58.67;101787.47;5049685;28;45366;-48
2022/02/10 16:18:53;;;;;;;;;21.50;19.00;;;;;12.09;58.47;101786.56;5054734;28;45388;-47
2022/02/10 16:22:25;;;;;;;;;17.75;15.25;;;;;12.10;58.35;101786.56;5039206;28;46072;-47
2022/02/10 16:24:19;;;;;;;;;12.75;11.75;;;;;12.08;58.67;101782.19;5033014;28;45577;-45
2022/02/10 16:26:56;;;;;;;;;13.00;13.00;;;;;12.07;58.55;101780.44;5054904;28;45407;-48
2022/02/10 16:29:24;;;;;;;;;12.00;12.00;;;;;12.08;58.45;101771.66;5051409;28;45362;-45
2022/02/10 16:31:50;;;;;;;;;16.00;12.25;;;;;12.08;58.53;101771.66;5042451;28;46719;-47
2022/02/10 16:34:16;;;;;;;;;14.00;11.50;;;;;12.10;58.38;101772.50;5050455;28;45255;-48
2022/02/10 16:36:42;;;;;;;;;14.75;11.50;;;;;12.04;58.50;101765.50;5046334;28;45193;-47
2022/02/10 16:39:08;;;;;;;;;16.00;13.25;;;;;12.11;58.51;101774.25;5050348;28;45450;-45
2022/02/10 16:41:33;;;;;;;;;12.00;11.00;;;;;12.12;58.37;101776.00;5054158;28;46028;-49
2022/02/10 16:43:59;;;;;;;;;11.50;9.25;;;;;12.12;58.33;101774.25;5052161;28;45372;-49
2022/02/10 16:46:25;;;;;;;;;13.50;11.25;;;;;12.12;58.51;101782.16;5047902;28;45375;-45
2022/02/10 16:48:51;;;;;;;;;13.25;11.00;;;;;12.13;58.50;101780.41;5050051;28;45549;-47
2022/02/10 16:51:19;;;;;;;;;13.00;11.25;;;;;12.14;58.29;101779.53;5052937;28;47100;-49
2022/02/10 16:53:50;;;;;;;;;14.25;14.25;;;;;12.12;58.32;101773.38;5040983;28;45296;-49
2022/02/10 16:56:20;;;;;;;;;11.00;10.00;;;;;12.13;58.14;101775.13;5054162;28;45424;-49
2022/02/10 16:58:57;;;;;;;;;11.75;9.50;;;;;12.14;58.48;101780.41;5040726;28;45858;-45
2022/02/10 17:18:21;;;;;;;;;19.50;13.75;;;;;12.07;58.17;101789.19;5039907;28;45312;-50
2022/02/10 17:20:55;;;;;;;;;15.25;13.00;;;;;12.08;58.24;101801.50;5039444;28;45433;-48
2022/02/10 17:28:34;;;;;;;;;18.75;15.50;;;;;12.01;58.08;101800.66;5039739;28;45373;-53
2022/02/10 17:34:15;;;;;;;;;13.75;11.50;;;;;11.99;58.12;101802.41;5034726;28;45355;-50
2022/02/10 17:36:51;;;;;;;;;13.50;11.50;;;;;11.99;57.88;101801.53;5052256;28;45362;-47
2022/02/10 17:53:00;;;;;;;;;18.50;16.25;;;;;11.90;58.15;101823.47;5039793;28;45323;-50
2022/02/10 17:55:26;;;;;;;;;16.50;13.25;;;;;11.85;58.14;101827.88;5039585;28;46318;-48
2022/02/10 17:57:51;;;;;;;;;15.50;14.25;;;;;11.85;58.09;101831.38;5042637;28;45485;-49
2022/02/10 18:00:20;;;;;;;;;17.00;16.75;;;;;11.85;58.10;101843.69;5035237;28;45402;-48
2022/02/10 18:02:46;;;;;;;;;18.50;16.00;;;;;11.83;58.22;101863.88;5036530;28;45339;-53
2022/02/10 18:05:28;;;;;;;;;13.50;12.75;;;;;11.81;58.37;101878.78;5031563;28;46199;-49
2022/02/10 18:07:56;;;;;;;;;14.00;14.00;;;;;11.80;58.37;101874.44;5044160;28;45157;-48
2022/02/10 18:15:41;;;;;;;;;10.50;10.00;;;;;11.75;58.78;101894.59;5038224;28;45383;-46
2022/02/10 18:18:18;;;;;;;;;9.75;9.00;;;;;11.74;58.73;101911.28;5047444;28;45498;-45
2022/02/10 18:20:50;;;;;;;;;8.00;8.00;;;;;11.69;58.83;101906.88;5043211;28;45413;-47
2022/02/10 18:23:21;;;;;;;;;7.00;7.00;;;;;11.69;58.67;101914.78;5039423;28;45249;-49
2022/02/10 19:08:43;;;;;;;;;8.00;8.00;;;;;11.36;58.85;101984.97;5039428;28;46027;-48
2022/02/10 19:11:09;;;;;;;;;8.50;7.50;;;;;11.30;58.74;101989.34;5045461;28;45367;-50
2022/02/10 19:13:35;;;;;;;;;9.50;8.25;;;;;11.22;58.97;101986.69;5055554;28;45392;-51
2022/02/10 19:16:00;;;;;;;;;6.75;6.75;;;;;11.24;58.82;101995.44;5049210;28;45299;-48
2022/02/10 19:18:26;;;;;;;;;7.75;7.75;;;;;11.22;58.65;101997.22;5049655;28;45295;-45
2022/02/10 19:20:51;;;;;;;;;9.00;7.00;;;;;11.18;58.83;102013.84;5044629;28;45493;-46
2022/02/10 19:23:16;;;;;;;;;6.25;6.25;;;;;11.11;58.79;102010.31;5055818;28;45311;-45
2022/02/10 19:25:42;;;;;;;;;9.00;6.25;;;;;11.10;58.70;102012.94;5048909;28;45497;-46
2022/02/10 19:28:11;;;;;;;;;8.00;8.00;;;;;11.08;58.82;102027.84;5049429;28;46241;-47
2022/02/10 19:30:38;;;;;;;;;6.00;6.00;;;;;11.06;58.63;102023.44;5028891;28;45221;-50
2022/02/10 19:33:08;;;;;;;;;5.75;5.75;;;;;11.02;58.80;102028.72;5055477;28;45385;-48
2022/02/10 19:35:41;;;;;;;;;5.50;4.00;;;;;10.99;58.64;102032.19;5041874;28;45329;-51
2022/02/10 19:38:06;;;;;;;;;3.25;3.25;;;;;10.95;58.67;102037.44;5055444;28;45443;-51
2022/02/10 19:40:39;;;;;;;;;6.00;4.25;;;;;10.91;58.63;102033.03;5050137;28;45264;-50
2022/02/10 19:43:05;;;;;;;;;2.50;2.50;;;;;10.88;58.67;102033.91;5043334;28;45725;-49
2022/02/10 19:45:30;;;;;;;;;3.00;3.00;;;;;10.85;58.76;102033.88;5040288;28;45656;-49
2022/02/10 19:47:56;;;;;;;;;2.75;2.75;;;;;10.83;58.50;102035.59;5040410;28;46170;-48
2022/02/10 19:50:27;;;;;;;;;4.25;2.50;;;;;10.82;58.53;102047.00;5051920;28;45432;-51
2022/02/10 19:52:54;;;;;;;;;3.50;3.25;;;;;10.78;58.50;102053.09;5048748;28;45240;-50
2022/02/10 19:55:23;;;;;;;;;3.00;2.50;;;;;10.77;58.55;102054.88;5050727;28;45486;-47
2022/02/10 19:57:52;;;;;;;;;3.00;3.00;;;;;10.72;58.52;102054.81;5034959;28;46106;-48
2022/02/10 20:00:25;;;;;;;;;5.25;4.00;;;;;10.70;58.35;102055.69;5040463;28;45501;-49
2022/02/10 20:02:51;;;;;;;;;2.50;2.50;;;;;10.62;58.50;102044.25;5055267;28;45243;-52
2022/02/10 20:05:21;;;;;;;;;30.50;27.75;;;;;10.65;58.41;102067.94;5052436;28;45225;-52
2022/02/10 20:07:51;;;;;;;;;4.00;2.75;;;;;10.62;58.44;102063.53;5048223;28;47159;-53
2022/02/10 20:10:17;;;;;;;;;4.00;4.00;;;;;10.60;58.33;102064.41;5048433;28;45302;-49
2022/02/10 20:12:43;;;;;;;;;6.00;4.75;;;;;10.58;58.48;102067.03;5047532;28;45271;-51
2022/02/10 20:15:10;;;;;;;;;4.50;3.00;;;;;10.50;58.55;102058.19;5049157;28;45297;-52
2022/02/10 20:17:36;;;;;;;;;3.50;3.25;;;;;10.55;58.28;102066.97;5054940;28;47040;-50
2022/02/10 20:20:03;;;;;;;;;5.00;3.75;;;;;10.53;58.45;102068.75;5044280;28;45303;-48
2022/02/10 20:22:33;;;;;;;;;4.00;4.00;;;;;10.51;58.37;102073.09;5027825;28;45282;-48
2022/02/10 20:24:59;;;;;;;;;4.00;4.00;;;;;10.47;58.17;102063.44;5054871;28;45306;-52
2022/02/10 20:27:25;;;;;;;;;2.25;2.25;;;;;10.48;58.52;102075.72;5048467;28;45319;-50
2022/02/10 20:29:51;;;;;;;;;7.00;5.00;;;;;10.47;58.34;102079.22;5047695;28;45307;-52
2022/02/10 20:32:16;;;;;;;;;9.25;8.00;;;;;10.43;58.49;102080.03;5053967;28;45356;-51
2022/02/10 20:34:42;;;;;;;;;6.00;5.00;;;;;10.42;58.44;102083.56;5052935;28;45956;-51
2022/02/10 20:37:07;;;;;;;;;5.25;5.25;;;;;10.39;58.43;102082.66;5048934;28;45934;-53
2022/02/10 20:39:32;;;;;;;;;6.00;5.00;;;;;10.39;58.48;102087.03;5045336;27;45276;-50
2022/02/10 20:42:08;;;;;;;;;5.00;5.00;;;;;10.34;58.54;102084.31;5049173;28;45384;-52
2022/02/10 20:44:34;;;;;;;;;4.00;4.00;;;;;10.34;58.60;102089.59;5047989;28;45170;-48
2022/02/10 20:47:00;;;;;;;;;4.25;4.00;;;;;10.36;58.50;102097.50;5051776;28;45326;-51
2022/02/10 20:49:27;;;;;;;;;4.75;4.75;;;;;10.35;58.52;102099.22;5052965;28;45322;-49
2022/02/10 20:51:54;;;;;;;;;3.00;3.00;;;;;10.34;58.52;102099.19;5033116;28;45212;-47
2022/02/10 20:54:21;;;;;;;;;5.00;3.00;;;;;10.33;58.54;102092.19;5047457;28;45493;-51
2022/02/10 20:56:46;;;;;;;;;5.00;4.75;;;;;10.32;58.47;102080.78;5050603;28;45349;-48
2022/02/10 21:02:14;;;;;;;;;7.25;6.50;;;;;10.30;58.46;102092.16;5051966;28;45389;-48
2022/02/10 21:05:29;;;;;;;;;5.25;4.75;;;;;10.28;58.32;102092.16;5046944;28;45321;-49
2022/02/10 21:07:40;;;;;;;;;4.25;4.25;;;;;10.28;58.36;102107.91;5044042;28;46099;-51
2022/02/10 21:10:11;;;;;;;;;5.00;3.75;;;;;10.28;58.27;102120.19;5043169;28;45411;-50
2022/02/10 21:12:40;;;;;;;;;3.00;3.00;;;;;10.25;58.25;102114.03;5044524;28;45308;-48
2022/02/10 21:15:11;;;;;;;;;5.50;4.50;;;;;10.23;58.46;102112.25;5048690;28;45260;-49
2022/02/10 21:17:37;;;;;;;;;3.75;3.75;;;;;10.22;58.35;102119.22;5052447;28;46982;-48
2022/02/10 21:20:04;;;;;;;;;2.50;2.50;;;;;10.22;58.30;102115.75;5039323;28;45405;-48
2022/02/10 21:22:32;;;;;;;;;5.75;4.75;;;;;10.21;58.51;102119.22;5045808;28;45243;-48
2022/02/10 21:25:09;;;;;;;;;5.00;4.00;;;;;10.19;58.42;102120.97;5046730;28;45628;-51
2022/02/10 21:30:06;;;;;;;;;6.75;5.25;;;;;10.13;58.16;102115.66;5042107;28;45194;-49
2022/02/10 21:32:36;;;;;;;;;8.00;6.00;;;;;10.15;58.31;102129.69;5060551;28;45298;-48
2022/02/10 21:37:58;;;;;;;;;5.00;5.00;;;;;10.08;58.35;102124.34;5063342;28;45258;-47
2022/02/10 21:55:55;;;;;;;;;7.00;6.75;;;;;9.90;58.42;102126.81;5039657;28;45401;-52
2022/02/10 21:59:15;;;;;;;;;6.00;6.00;;;;;9.85;58.63;102128.50;5039410;28;46097;-50
2022/02/10 22:11:33;;;;;;;;;7.50;7.25;;;;;9.71;58.30;102142.34;5039972;28;45214;-50
2022/02/10 22:19:15;;;;;;;;;5.25;5.25;;;;;9.63;58.46;102143.13;5039651;28;45272;-50
2022/02/10 22:21:59;;;;;;;;;6.75;4.75;;;;;9.63;58.23;102141.38;5039256;28;45348;-49
2022/02/10 22:24:26;;;;;;;;;4.25;4.25;;;;;9.60;58.25;102141.34;5039784;28;45346;-50
2022/02/10 22:26:53;;;;;;;;;8.25;6.50;;;;;9.59;58.37;102160.56;5039589;28;45420;-51
2022/02/10 22:34:53;;;;;;;;;6.50;6.50;;;;;9.50;58.20;102157.84;5039815;28;45337;-50
2022/02/10 22:37:20;;;;;;;;;6.00;6.00;;;;;9.41;58.11;102151.59;5041024;28;45383;-48
2022/02/10 22:39:47;;;;;;;;;5.75;5.50;;;;;9.44;58.37;102159.50;5032941;28;46333;-50
2022/02/10 22:42:14;;;;;;;;;6.75;6.75;;;;;9.40;58.32;102173.47;5043228;28;45331;-49
2022/02/10 22:44:40;;;;;;;;;7.00;7.00;;;;;9.39;58.29;102162.94;5043095;28;45250;-49
2022/02/10 22:47:07;;;;;;;;;7.50;5.50;;;;;9.39;58.44;102168.19;5043119;28;45501;-52
2022/02/10 22:49:33;;;;;;;;;7.00;6.00;;;;;9.36;58.20;102162.91;5042642;28;46272;-49
2022/02/10 22:51:59;;;;;;;;;4.25;4.25;;;;;9.35;58.17;102177.75;5042951;28;45240;-49
2022/02/10 22:54:24;;;;;;;;;5.00;4.00;;;;;9.32;58.36;102176.84;5042943;28;45360;-52
2022/02/10 22:56:50;;;;;;;;;5.25;5.00;;;;;9.31;58.07;102175.06;5042949;28;45651;-52
2022/02/10 22:59:18;;;;;;;;;6.00;5.50;;;;;9.28;58.34;102175.91;5042803;28;46270;-51
2022/02/10 23:01:43;;;;;;;;;3.25;3.25;;;;;9.23;58.19;102177.59;5042821;28;45213;-49
2022/02/10 23:04:09;;;;;;;;;7.00;5.75;;;;;9.19;58.39;102178.41;5042776;28;45311;-51
2022/02/10 23:06:36;;;;;;;;;6.00;6.00;;;;;9.15;58.28;102187.09;5042648;28;45501;-49
2022/02/10 23:09:23;;;;;;;;;7.00;5.00;;;;;9.07;58.07;102174.75;5042484;28;46153;-48
2022/02/10 23:11:48;;;;;;;;;5.50;5.00;;;;;9.06;58.16;102180.84;5042373;28;45406;-50
2022/02/10 23:14:14;;;;;;;;;5.75;5.00;;;;;9.03;58.10;102179.91;5042806;28;45342;-51
2022/02/10 23:16:41;;;;;;;;;6.50;6.50;;;;;8.98;58.29;102190.34;5042246;28;45378;-49
2022/02/10 23:19:06;;;;;;;;;5.25;5.25;;;;;8.93;58.08;102192.88;5042496;28;46079;-51
2022/02/10 23:21:31;;;;;;;;;5.50;5.50;;;;;8.90;57.98;102200.69;5042009;28;45281;-50
2022/02/10 23:23:57;;;;;;;;;8.00;6.25;;;;;8.86;58.26;102204.13;5042545;28;45525;-51
2022/02/10 23:26:23;;;;;;;;;7.00;7.00;;;;;8.80;58.35;102195.28;5042460;28;45233;-48
2022/02/10 23:28:51;;;;;;;;;9.25;8.25;;;;;8.82;58.34;102214.53;5041085;28;46974;-49
2022/02/10 23:31:21;;;;;;;;;7.00;7.00;;;;;8.81;58.08;102216.28;5042351;28;45687;-50
2022/02/10 23:33:56;;;;;;;;;13.50;9.00;;;;;8.78;58.25;102224.97;5041061;28;45481;-52
2022/02/10 23:44:33;;;;;;;;;11.00;8.25;;;;;8.66;58.38;102223.91;5042047;28;45333;-49
2022/02/10 23:47:01;;;;;;;;;7.25;7.25;;;;;8.62;58.28;102238.69;5041168;28;45354;-50
2022/02/10 23:49:29;;;;;;;;;10.25;5.50;;;;;8.58;58.26;102235.13;5040570;28;47319;-49
2022/02/10 23:52:01;;;;;;;;;10.00;10.00;;;;;8.55;58.48;102240.31;5042077;28;45400;-50
2022/02/10 23:54:33;;;;;;;;;8.00;8.00;;;;;8.52;58.35;102234.13;5041982;28;45320;-49
2022/02/10 23:57:08;;;;;;;;;13.00;10.75;;;;;8.51;58.30;102242.84;5040610;28;45711;-51
2022/02/10 23:59:47;;;;;;;;;11.25;9.50;;;;;8.48;58.21;102242.78;5041473;28;46065;-49
